createdAt,value
2024-01-05T00:00:41.846Z,1.27
2024-01-05T00:03:08.995Z,1.42
2024-01-05T00:05:36.443Z,1.33
2024-01-05T00:08:03.602Z,1.02
2024-01-05T00:10:30.523Z,1.05
2024-01-05T00:12:57.438Z,1.08
2024-01-05T00:15:24.508Z,1.20
2024-01-05T00:17:51.613Z,1.40
2024-01-05T00:20:18.629Z,1.40
2024-01-05T00:22:45.667Z,1.10
2024-01-05T00:25:12.782Z,1.10
2024-01-05T00:27:39.686Z,1.35
2024-01-05T00:30:07.449Z,1.00
2024-01-05T00:32:34.477Z,1.20
2024-01-05T00:35:01.413Z,0.80
2024-01-05T00:37:28.437Z,0.90
2024-01-05T00:39:55.590Z,1.23
2024-01-05T00:42:22.579Z,1.05
2024-01-05T00:44:49.497Z,0.98
2024-01-05T00:47:16.433Z,1.23
2024-01-05T00:49:43.949Z,1.20
2024-01-05T00:52:10.930Z,1.02
2024-01-05T00:54:37.842Z,0.75
2024-01-05T00:57:04.989Z,0.88
2024-01-05T00:59:32.266Z,0.93
2024-01-05T01:01:59.231Z,1.20
2024-01-05T01:04:26.145Z,1.10
2024-01-05T01:06:53.012Z,0.90
2024-01-05T01:09:19.892Z,0.98
2024-01-05T01:11:47.006Z,0.90
2024-01-05T01:14:13.892Z,1.00
2024-01-05T01:16:40.792Z,1.10
2024-01-05T01:19:08.089Z,1.10
2024-01-05T01:21:35.139Z,1.08
2024-01-05T01:24:02.219Z,1.08
2024-01-05T01:26:29.091Z,1.00
2024-01-05T01:28:55.926Z,1.10
2024-01-05T01:31:23.045Z,1.10
2024-01-05T01:33:50.053Z,1.35
2024-01-05T01:36:16.959Z,0.73
2024-01-05T01:38:43.852Z,1.02
2024-01-05T01:41:10.669Z,1.10
2024-01-05T01:43:37.524Z,0.82
2024-01-05T01:46:04.535Z,1.00
2024-01-05T01:48:31.803Z,1.05
2024-01-05T01:51:00.004Z,0.90
2024-01-05T01:53:28.057Z,0.85
2024-01-05T01:55:55.189Z,1.00
2024-01-05T01:58:23.212Z,1.08
2024-01-05T02:00:50.773Z,1.27
2024-01-05T02:03:18.611Z,0.90
2024-01-05T02:05:46.477Z,1.17
2024-01-05T02:08:13.323Z,1.10
2024-01-05T02:10:42.104Z,0.98
2024-01-05T02:13:09.094Z,0.93
2024-01-05T02:15:35.981Z,1.00
2024-01-05T02:18:11.544Z,0.90
2024-01-05T02:20:38.468Z,0.80
2024-01-05T02:23:09.477Z,1.02
2024-01-05T02:25:36.327Z,1.15
2024-01-05T02:28:03.231Z,0.82
2024-01-05T02:30:30.176Z,0.77
2024-01-05T02:32:57.149Z,0.93
2024-01-05T02:35:23.990Z,1.02
2024-01-05T02:37:50.811Z,0.93
2024-01-05T02:40:17.730Z,1.00
2024-01-05T02:42:44.572Z,1.20
2024-01-05T02:45:11.476Z,1.13
2024-01-05T02:47:38.282Z,0.80
2024-01-05T02:50:05.637Z,1.00
2024-01-05T02:52:32.537Z,0.90
2024-01-05T02:54:59.390Z,1.00
2024-01-05T02:57:26.278Z,0.88
2024-01-05T02:59:53.224Z,1.00
2024-01-05T03:02:20.136Z,0.82
2024-01-05T03:04:47.224Z,0.85
2024-01-05T03:07:14.259Z,0.80
2024-01-05T03:09:41.191Z,0.85
2024-01-05T03:12:09.101Z,0.80
2024-01-05T03:14:36.068Z,0.85
2024-01-05T03:17:04.041Z,0.85
2024-01-05T03:19:31.184Z,0.80
2024-01-05T03:21:58.433Z,0.80
2024-01-05T03:24:25.601Z,0.90
2024-01-05T03:26:52.833Z,0.88
2024-01-05T03:29:19.752Z,0.70
2024-01-05T03:31:47.871Z,1.00
2024-01-05T03:34:15.886Z,0.75
2024-01-05T03:36:43.195Z,0.80
2024-01-05T03:39:10.682Z,0.70
2024-01-05T03:41:37.648Z,0.70
2024-01-05T03:44:05.428Z,0.63
2024-01-05T03:46:32.353Z,0.82
2024-01-05T03:48:59.393Z,0.70
2024-01-05T03:51:26.669Z,0.80
2024-01-05T03:53:53.711Z,0.57
2024-01-05T03:56:20.665Z,0.60
2024-01-05T03:58:47.579Z,0.70
2024-01-05T04:01:14.573Z,0.75
2024-01-05T04:03:41.521Z,0.82
2024-01-05T04:06:08.419Z,0.55
2024-01-05T04:08:35.267Z,0.60
2024-01-05T04:11:02.101Z,1.00
2024-01-05T04:13:28.948Z,0.60
2024-01-05T04:15:55.764Z,0.50
2024-01-05T04:18:22.687Z,0.80
2024-01-05T04:20:49.632Z,0.65
2024-01-05T04:23:16.381Z,0.60
2024-01-05T04:25:43.239Z,0.70
2024-01-05T04:28:10.046Z,0.38
2024-01-05T04:30:37.541Z,0.50
2024-01-05T04:33:05.030Z,0.43
2024-01-05T04:35:32.058Z,0.70
2024-01-05T04:37:58.864Z,0.60
2024-01-05T04:40:25.962Z,0.60
2024-01-05T04:42:52.789Z,0.40
2024-01-05T04:45:19.762Z,0.50
2024-01-05T04:47:47.930Z,0.30
2024-01-05T04:50:14.911Z,0.40
2024-01-05T04:52:41.754Z,0.50
2024-01-05T04:55:09.940Z,0.40
2024-01-05T04:57:37.065Z,0.50
2024-01-05T05:00:04.233Z,0.40
2024-01-05T05:02:31.091Z,0.82
2024-01-05T05:04:58.037Z,0.40
2024-01-05T05:07:24.982Z,0.30
2024-01-05T05:09:51.950Z,0.25
2024-01-05T05:12:18.977Z,0.45
2024-01-05T05:14:45.938Z,0.30
2024-01-05T05:17:12.919Z,0.30
2024-01-05T05:19:39.952Z,0.35
2024-01-05T05:22:07.033Z,0.30
2024-01-05T05:24:34.209Z,0.60
2024-01-05T05:27:01.154Z,0.30
2024-01-05T05:29:28.148Z,0.40
2024-01-05T05:31:55.068Z,0.30
2024-01-05T05:34:22.242Z,0.40
2024-01-05T05:36:49.205Z,0.30
2024-01-05T05:39:16.338Z,0.55
2024-01-05T05:41:43.471Z,0.20
2024-01-05T05:44:10.487Z,0.20
2024-01-05T05:46:37.479Z,0.40
2024-01-05T05:49:04.966Z,0.20
2024-01-05T05:51:32.075Z,0.30
2024-01-05T05:53:59.128Z,0.60
2024-01-05T05:56:26.005Z,0.15
2024-01-05T05:58:52.898Z,0.30
2024-01-05T06:01:19.855Z,0.47
2024-01-05T06:03:46.923Z,0.20
2024-01-05T06:06:19.128Z,0.20
2024-01-05T06:08:46.244Z,0.20
2024-01-05T06:11:15.254Z,0.20
2024-01-05T06:13:42.182Z,0.30
2024-01-05T06:16:09.149Z,0.30
2024-01-05T06:18:36.297Z,0.28
2024-01-05T06:21:03.510Z,0.38
2024-01-05T06:23:31.580Z,0.20
2024-01-05T06:25:58.675Z,0.30
2024-01-05T06:28:27.859Z,0.32
2024-01-05T06:30:55.844Z,0.13
2024-01-05T06:33:23.319Z,0.20
2024-01-05T06:35:50.371Z,0.20
2024-01-05T06:38:17.362Z,0.30
2024-01-05T06:40:44.300Z,0.20
2024-01-05T06:43:11.369Z,0.30
2024-01-05T06:45:38.567Z,0.30
2024-01-05T06:48:06.647Z,0.30
2024-01-05T06:50:37.068Z,0.20
2024-01-05T06:53:04.694Z,0.20
2024-01-05T06:55:31.618Z,0.10
2024-01-05T06:57:58.569Z,0.20
2024-01-05T07:00:25.578Z,0.30
2024-01-05T07:02:52.572Z,0.28
2024-01-05T07:05:20.178Z,0.30
2024-01-05T07:07:47.302Z,0.28
2024-01-05T07:10:14.538Z,0.40
2024-01-05T07:12:41.721Z,0.57
2024-01-05T07:15:09.210Z,0.40
2024-01-05T07:17:36.356Z,0.20
2024-01-05T07:20:03.735Z,0.50
2024-01-05T07:22:30.714Z,0.30
2024-01-05T07:24:58.844Z,0.10
2024-01-05T07:27:25.919Z,0.30
2024-01-05T07:29:53.067Z,0.20
2024-01-05T07:32:20.988Z,0.40
2024-01-05T07:34:48.075Z,0.20
2024-01-05T07:37:15.212Z,0.20
2024-01-05T07:39:42.260Z,0.30
2024-01-05T07:42:09.144Z,0.20
2024-01-05T07:44:36.297Z,0.40
2024-01-05T07:47:03.292Z,0.30
2024-01-05T07:49:30.422Z,0.30
2024-01-05T07:51:57.497Z,0.50
2024-01-05T07:54:24.474Z,0.20
2024-01-05T07:56:51.401Z,0.35
2024-01-05T07:59:18.288Z,0.30
2024-01-05T08:01:45.375Z,0.35
2024-01-05T08:04:12.925Z,0.20
2024-01-05T08:06:39.919Z,0.30
2024-01-05T08:09:07.135Z,0.30
2024-01-05T08:11:34.119Z,0.40
2024-01-05T08:14:01.078Z,0.30
2024-01-05T08:16:28.074Z,0.40
2024-01-05T08:18:55.178Z,0.30
2024-01-05T08:21:22.177Z,0.40
2024-01-05T08:23:49.044Z,0.25
2024-01-05T08:26:19.483Z,0.30
2024-01-05T08:28:46.881Z,0.40
2024-01-05T08:31:14.273Z,0.40
2024-01-05T08:33:41.451Z,0.30
2024-01-05T08:36:09.130Z,0.38
2024-01-05T08:38:36.063Z,0.50
2024-01-05T08:41:03.315Z,0.30
2024-01-05T08:43:31.321Z,0.30
2024-01-05T08:45:58.596Z,0.35
2024-01-05T08:48:25.661Z,0.38
2024-01-05T08:50:52.554Z,0.52
2024-01-05T08:53:22.063Z,0.40
2024-01-05T08:55:49.083Z,0.40
2024-01-05T08:58:16.743Z,0.40
2024-01-05T09:00:43.808Z,0.52
2024-01-05T09:03:10.861Z,0.40
2024-01-05T09:05:37.905Z,0.52
2024-01-05T09:08:05.173Z,0.50
2024-01-05T09:10:34.340Z,0.50
2024-01-05T09:13:04.813Z,0.43
2024-01-05T09:15:31.700Z,0.40
2024-01-05T09:17:58.864Z,0.30
2024-01-05T09:20:26.022Z,0.57
2024-01-05T09:22:52.831Z,0.40
2024-01-05T09:25:19.723Z,0.60
2024-01-05T09:27:46.508Z,0.50
2024-01-05T09:30:13.707Z,0.63
2024-01-05T09:32:40.608Z,0.60
2024-01-05T09:35:10.121Z,0.70
2024-01-05T09:37:37.480Z,0.45
2024-01-05T09:40:05.240Z,0.80
2024-01-05T09:42:32.137Z,0.75
2024-01-05T09:45:00.659Z,0.40
2024-01-05T09:47:28.060Z,0.82
2024-01-05T09:49:55.081Z,0.73
2024-01-05T09:52:22.372Z,0.68
2024-01-05T09:54:51.419Z,0.60
2024-01-05T09:57:19.457Z,0.52
2024-01-05T09:59:49.807Z,0.60
2024-01-05T10:02:23.543Z,0.70
2024-01-05T10:04:50.366Z,0.90
2024-01-05T10:07:17.235Z,0.85
2024-01-05T10:09:52.092Z,0.68
2024-01-05T10:12:21.637Z,0.85
2024-01-05T10:14:48.816Z,0.90
2024-01-05T10:17:19.330Z,1.08
2024-01-05T10:19:46.368Z,1.00
2024-01-05T10:22:15.305Z,0.98
2024-01-05T10:24:43.562Z,0.93
2024-01-05T10:27:14.954Z,0.80
2024-01-05T10:29:46.722Z,0.60
2024-01-05T10:32:16.569Z,0.70
2024-01-05T10:34:45.638Z,0.90
2024-01-05T10:37:15.272Z,1.08
2024-01-05T10:39:49.837Z,0.90
2024-01-05T10:42:29.634Z,1.10
2024-01-05T10:44:58.648Z,0.73
2024-01-05T10:47:27.732Z,0.80
2024-01-05T10:49:57.058Z,0.82
2024-01-05T10:52:27.421Z,0.85
2024-01-05T10:54:54.443Z,0.77
2024-01-05T10:57:22.496Z,0.90
2024-01-05T10:59:51.368Z,0.60
2024-01-05T11:02:40.140Z,0.73
2024-01-05T11:05:11.126Z,0.80
2024-01-05T11:07:43.366Z,0.80
2024-01-05T11:10:33.188Z,0.70
2024-01-05T11:16:16.285Z,0.82
2024-01-05T11:19:07.740Z,0.70
2024-01-05T11:21:59.625Z,0.82
2024-01-05T11:24:27.421Z,0.80
2024-01-05T11:26:55.998Z,0.70
2024-01-05T11:29:48.730Z,1.10
2024-01-05T11:32:36.665Z,0.65
2024-01-05T11:35:05.880Z,0.57
2024-01-05T11:37:33.341Z,0.68
2024-01-05T11:40:01.599Z,1.00
2024-01-05T11:42:29.939Z,0.80
2024-01-05T11:44:58.263Z,0.70
2024-01-05T11:48:03.856Z,0.70
2024-01-05T11:50:35.268Z,0.70
2024-01-05T11:53:17.223Z,0.60
2024-01-05T11:55:54.750Z,0.82
2024-01-05T11:58:23.395Z,0.70
2024-01-05T12:00:51.758Z,0.95
2024-01-05T12:03:21.984Z,0.60
2024-01-05T12:05:51.725Z,0.98
2024-01-05T12:10:45.624Z,1.10
2024-01-05T12:13:12.551Z,0.70
2024-01-05T12:15:47.184Z,0.63
2024-01-05T12:18:27.921Z,0.68
2024-01-05T12:21:02.528Z,0.85
2024-01-05T12:23:31.262Z,0.80
2024-01-05T12:26:02.326Z,0.75
2024-01-05T12:28:31.070Z,0.63
2024-01-05T12:30:59.153Z,0.80
2024-01-05T12:33:30.293Z,0.88
2024-01-05T12:35:57.628Z,0.70
2024-01-05T12:38:29.707Z,1.20
2024-01-05T12:41:07.978Z,0.85
2024-01-05T12:43:38.613Z,0.70
2024-01-05T12:46:06.495Z,0.80
2024-01-05T12:48:34.429Z,1.00
2024-01-05T12:51:09.373Z,0.85
2024-01-05T12:53:36.869Z,0.70
2024-01-05T12:56:21.850Z,0.57
2024-01-05T12:58:49.355Z,0.60
2024-01-05T13:01:23.560Z,0.90
2024-01-05T13:04:03.494Z,0.73
2024-01-05T13:06:31.582Z,0.80
2024-01-05T13:08:58.937Z,0.60
2024-01-05T13:11:25.837Z,0.73
2024-01-05T13:13:53.447Z,0.80
2024-01-05T13:16:20.817Z,0.82
2024-01-05T13:18:48.161Z,0.68
2024-01-05T13:21:15.270Z,0.90
2024-01-05T13:23:44.013Z,0.80
2024-01-05T13:26:11.127Z,0.93
2024-01-05T13:28:38.320Z,1.00
2024-01-05T13:31:05.942Z,0.90
2024-01-05T13:33:34.054Z,1.08
2024-01-05T13:36:01.342Z,0.90
2024-01-05T13:38:28.355Z,1.00
2024-01-05T13:40:55.302Z,0.77
2024-01-05T13:43:24.581Z,0.80
2024-01-05T13:45:53.026Z,0.60
2024-01-05T13:48:20.188Z,0.77
2024-01-05T13:50:47.153Z,0.68
2024-01-05T13:53:15.339Z,0.88
2024-01-05T13:55:42.553Z,0.70
2024-01-05T13:58:09.526Z,0.75
2024-01-05T14:00:36.643Z,0.65
2024-01-05T14:03:04.334Z,0.65
2024-01-05T14:05:31.502Z,0.50
2024-01-05T14:07:58.495Z,0.85
2024-01-05T14:10:25.453Z,0.88
2024-01-05T14:12:52.421Z,0.70
2024-01-05T14:15:20.625Z,0.60
2024-01-05T14:17:47.615Z,0.70
2024-01-05T14:20:14.554Z,0.80
2024-01-05T14:22:41.567Z,0.80
2024-01-05T14:25:08.749Z,0.80
2024-01-05T14:27:35.673Z,0.70
2024-01-05T14:30:03.549Z,0.70
2024-01-05T14:32:30.355Z,0.70
2024-01-05T14:34:57.377Z,0.75
2024-01-05T14:37:24.265Z,0.70
2024-01-05T14:39:51.095Z,0.60
2024-01-05T14:42:17.959Z,0.60
2024-01-05T14:44:44.755Z,0.93
2024-01-05T14:47:12.314Z,0.65
2024-01-05T14:49:39.565Z,0.73
2024-01-05T14:52:06.604Z,0.80
2024-01-05T14:54:33.570Z,0.63
2024-01-05T14:57:00.594Z,0.90
2024-01-05T14:59:27.526Z,0.57
2024-01-05T15:01:54.447Z,0.60
2024-01-05T15:04:21.509Z,0.77
2024-01-05T15:06:48.628Z,0.80
2024-01-05T15:09:15.622Z,0.93
2024-01-05T15:11:42.828Z,0.75
2024-01-05T15:14:09.925Z,0.73
2024-01-05T15:16:42.927Z,0.65
2024-01-05T15:19:10.165Z,0.98
2024-01-05T15:21:37.152Z,0.90
2024-01-05T15:24:04.682Z,0.77
2024-01-05T15:26:31.649Z,0.70
2024-01-05T15:29:03.956Z,0.77
2024-01-05T15:31:31.172Z,1.00
2024-01-05T15:33:58.262Z,1.00
2024-01-05T15:36:25.793Z,0.80
2024-01-05T15:38:53.069Z,0.80
2024-01-05T15:41:20.599Z,0.77
2024-01-05T15:43:49.049Z,0.80
2024-01-05T15:46:18.061Z,0.70
2024-01-05T15:48:45.413Z,0.75
2024-01-05T15:51:15.643Z,0.88
2024-01-05T15:53:43.807Z,0.65
2024-01-05T15:56:11.206Z,0.90
2024-01-05T15:58:39.477Z,0.65
2024-01-05T16:01:07.068Z,0.60
2024-01-05T16:03:34.567Z,0.60
2024-01-05T16:06:01.815Z,0.90
2024-01-05T16:08:29.246Z,0.80
2024-01-05T16:10:56.833Z,0.80
2024-01-05T16:13:24.283Z,1.10
2024-01-05T16:15:51.361Z,0.90
2024-01-05T16:18:18.617Z,0.85
2024-01-05T16:20:46.653Z,0.90
2024-01-05T16:23:13.841Z,0.95
2024-01-05T16:25:44.139Z,0.80
2024-01-05T16:28:11.225Z,1.00
2024-01-05T16:30:38.563Z,0.80
2024-01-05T16:33:06.376Z,0.80
2024-01-05T16:35:33.299Z,0.80
2024-01-05T16:38:00.204Z,0.80
2024-01-05T16:40:27.043Z,0.90
2024-01-05T16:42:53.952Z,0.98
2024-01-05T16:45:20.847Z,0.90
2024-01-05T16:47:47.960Z,0.80
2024-01-05T16:50:15.308Z,0.75
2024-01-05T16:52:43.611Z,0.70
2024-01-05T16:55:11.005Z,0.93
2024-01-05T16:57:37.955Z,0.70
2024-01-05T17:00:06.065Z,1.00
2024-01-05T17:02:33.561Z,0.73
2024-01-05T17:05:00.946Z,0.90
2024-01-05T17:07:28.740Z,0.75
2024-01-05T17:09:55.862Z,0.95
2024-01-05T17:12:23.119Z,0.90
2024-01-05T17:14:50.159Z,0.63
2024-01-05T17:17:17.493Z,0.70
2024-01-05T17:19:44.562Z,0.85
2024-01-05T17:22:11.609Z,0.73
2024-01-05T17:24:39.276Z,0.70
2024-01-05T17:27:07.707Z,0.70
2024-01-05T17:29:36.366Z,0.77
2024-01-05T17:32:03.390Z,0.70
2024-01-05T17:34:30.286Z,0.70
2024-01-05T17:36:57.184Z,0.60
2024-01-05T17:39:24.375Z,0.60
2024-01-05T17:41:51.277Z,0.43
2024-01-05T17:44:18.173Z,0.52
2024-01-05T17:46:45.652Z,0.80
2024-01-05T17:49:12.839Z,0.60
2024-01-05T17:51:40.481Z,0.60
2024-01-05T17:54:07.966Z,0.60
2024-01-05T17:56:36.578Z,0.73
2024-01-05T17:59:04.872Z,0.50
2024-01-05T18:01:33.104Z,0.40
2024-01-05T18:04:00.785Z,0.50
2024-01-05T18:06:28.249Z,0.60
2024-01-05T18:08:55.308Z,0.60
2024-01-05T18:11:26.215Z,0.68
2024-01-05T18:13:53.565Z,0.63
2024-01-05T18:16:24.834Z,0.68
2024-01-05T18:18:52.050Z,0.80
2024-01-05T18:21:25.772Z,0.70
2024-01-05T18:23:54.712Z,0.60
2024-01-05T18:26:22.809Z,0.50
2024-01-05T18:28:50.294Z,0.60
2024-01-05T18:31:27.214Z,0.50
2024-01-05T18:33:55.043Z,0.60
2024-01-05T18:36:22.427Z,0.50
2024-01-05T18:38:50.102Z,0.50
2024-01-05T18:41:28.333Z,0.68
2024-01-05T18:43:55.635Z,0.70
2024-01-05T18:46:22.760Z,0.50
2024-01-05T18:48:49.682Z,0.60
2024-01-05T18:51:17.094Z,0.60
2024-01-05T18:53:44.671Z,0.45
2024-01-05T18:56:15.136Z,0.52
2024-01-05T18:58:42.365Z,0.50
2024-01-05T19:01:11.064Z,0.70
2024-01-05T19:03:38.193Z,0.40
2024-01-05T19:06:06.300Z,0.40
2024-01-05T19:08:33.489Z,0.60
2024-01-05T19:11:00.275Z,0.60
2024-01-05T19:13:27.305Z,0.68
2024-01-05T19:15:54.187Z,0.50
2024-01-05T19:18:21.301Z,0.63
2024-01-05T19:20:48.602Z,0.43
2024-01-05T19:23:16.309Z,0.40
2024-01-05T19:25:43.181Z,0.80
2024-01-05T19:28:10.084Z,0.60
2024-01-05T19:30:37.138Z,0.52
2024-01-05T19:33:04.553Z,0.52
2024-01-05T19:35:31.465Z,0.70
2024-01-05T19:38:00.449Z,0.70
2024-01-05T19:40:27.316Z,0.40
2024-01-05T19:42:54.154Z,0.57
2024-01-05T19:45:21.131Z,0.60
2024-01-05T19:47:48.068Z,0.57
2024-01-05T19:50:15.015Z,0.47
2024-01-05T19:52:41.935Z,0.50
2024-01-05T19:55:09.028Z,0.50
2024-01-05T19:57:36.222Z,0.60
2024-01-05T20:00:04.310Z,0.60
2024-01-05T20:02:31.346Z,0.45
2024-01-05T20:04:58.419Z,0.40
2024-01-05T20:07:25.855Z,0.43
2024-01-05T20:09:53.738Z,0.50
2024-01-05T20:12:20.836Z,0.50
2024-01-05T20:14:47.880Z,0.50
2024-01-05T20:17:14.884Z,0.47
2024-01-05T20:19:42.993Z,0.45
2024-01-05T20:22:09.969Z,0.50
2024-01-05T20:24:36.871Z,0.57
2024-01-05T20:27:04.129Z,0.60
2024-01-05T20:29:31.147Z,0.50
2024-01-05T20:31:58.621Z,0.50
2024-01-05T20:34:26.256Z,0.30
2024-01-05T20:36:55.304Z,0.38
2024-01-05T20:39:22.502Z,0.40
2024-01-05T20:41:50.627Z,0.45
2024-01-05T20:44:18.458Z,0.40
2024-01-05T20:46:48.720Z,0.50
2024-01-05T20:49:17.203Z,0.40
2024-01-05T20:51:44.483Z,0.40
2024-01-05T20:54:11.497Z,0.47
2024-01-05T20:56:38.484Z,0.60
2024-01-05T20:59:05.474Z,0.63
2024-01-05T21:01:32.606Z,0.40
2024-01-05T21:03:59.649Z,0.50
2024-01-05T21:06:26.734Z,0.50
2024-01-05T21:08:53.841Z,0.50
2024-01-05T21:11:22.509Z,0.55
2024-01-05T21:13:49.385Z,0.50
2024-01-05T21:16:16.247Z,0.70
2024-01-05T21:18:43.204Z,0.52
2024-01-05T21:21:10.237Z,0.80
2024-01-05T21:23:37.289Z,0.70
2024-01-05T21:26:05.967Z,0.73
2024-01-05T21:28:33.422Z,0.70
2024-01-05T21:31:05.432Z,0.52
2024-01-05T21:33:32.895Z,0.73
2024-01-05T21:35:59.790Z,0.60
2024-01-05T21:38:26.617Z,0.70
2024-01-05T21:40:53.433Z,0.57
2024-01-05T21:43:22.088Z,0.60
2024-01-05T21:45:49.132Z,0.70
2024-01-05T21:48:16.153Z,0.30
2024-01-05T21:50:43.492Z,0.77
2024-01-05T21:53:12.293Z,0.57
2024-01-05T21:55:39.174Z,0.70
2024-01-05T21:58:06.023Z,0.98
2024-01-05T22:00:33.080Z,0.40
2024-01-05T22:03:00.167Z,0.60
2024-01-05T22:05:27.223Z,0.50
2024-01-05T22:07:54.304Z,0.60
2024-01-05T22:10:21.306Z,0.40
2024-01-05T22:12:52.521Z,0.50
2024-01-05T22:15:19.536Z,0.40
2024-01-05T22:17:46.629Z,0.40
2024-01-05T22:20:13.794Z,0.40
2024-01-05T22:22:40.751Z,0.47
2024-01-05T22:25:08.610Z,0.43
2024-01-05T22:27:35.761Z,0.40
2024-01-05T22:30:02.857Z,0.50
2024-01-05T22:32:32.173Z,0.38
2024-01-05T22:35:01.222Z,0.45
2024-01-05T22:37:28.267Z,0.60
2024-01-05T22:39:55.231Z,0.40
2024-01-05T22:42:22.217Z,0.40
2024-01-05T22:44:49.126Z,0.52
2024-01-05T22:47:16.095Z,0.30
2024-01-05T22:49:43.121Z,0.40
2024-01-05T22:52:10.351Z,0.60
2024-01-05T22:54:37.603Z,0.40
2024-01-05T22:57:05.917Z,0.30
2024-01-05T22:59:33.249Z,0.50
2024-01-05T23:02:04.542Z,0.50
2024-01-05T23:04:31.620Z,0.40
2024-01-05T23:06:58.675Z,0.40
2024-01-05T23:09:26.061Z,0.45
2024-01-05T23:11:53.403Z,0.50
2024-01-05T23:14:20.531Z,0.50
2024-01-05T23:16:48.378Z,0.50
2024-01-05T23:19:15.557Z,0.40
2024-01-05T23:21:42.798Z,0.40
2024-01-05T23:24:09.975Z,0.50
2024-01-05T23:26:36.932Z,0.55
2024-01-05T23:29:04.822Z,0.50
2024-01-05T23:31:38.942Z,0.40
2024-01-05T23:34:15.051Z,0.40
2024-01-05T23:36:44.447Z,0.50
2024-01-05T23:39:11.573Z,0.50
2024-01-05T23:41:38.620Z,0.30
2024-01-05T23:44:05.800Z,0.57
2024-01-05T23:46:32.761Z,0.40
2024-01-05T23:48:59.826Z,0.30
2024-01-05T23:51:27.020Z,0.40
2024-01-05T23:53:54.052Z,0.50
2024-01-05T23:56:20.989Z,0.30
2024-01-05T23:58:47.899Z,0.60
